Denton, TX (76202)

10:38 PM CDT on April 23, 2017 (GMT -0500)
Lee Meadows | | Change Station

Elev 637 ft 33.22 °N, 97.11 °W | Updated 4 seconds ago

Clear
Clear
52.8 °F
Feels Like 52.8 °F
N
0.0
Wind Variable Wind from NE
Gusts 0.0 mph

Today
High -- | Low -- °F
--% Chance of Precip.
Yesterday
High -- | Low -- °F
Precip. -- in
Pressure 30.01 in
Visibility 10.0 miles
Clouds Clear
Dew Point 46 °F
Humidity 78%
Rainfall 0.00 in
Snow Depth Not available.
6:48 AM 8:05 PM
Waning Crescent, 8% visible
METAR KDTO 240253Z 00000KT 10SM CLR 13/08 A3002 RMK AO2 SLP160 T01330078 55001
Pressure 30.01 in
Visibility 10.0 miles
Clouds Clear
Dew Point 46 °F
Humidity 78%
Rainfall 0.00 in
Snow Depth Not available.
6:48 AM 8:05 PM
Waning Crescent, 8% visible
METAR KDTO 240253Z 00000KT 10SM CLR 13/08 A3002 RMK AO2 SLP160 T01330078 55001

Get Severe Weather Alerts

Thanks for signing up!

Be on the lookout for a verification email in your inbox.

You'll start receiving the daily forecast at 8 AM.

×

10-Day Weather Forecast

Almanac

Astronomy

Apr. 23, 2017 Rise Set
Actual Time
Civil Twilight
Nautical Twilight
Astronomical Twilight
Moon
Length of Visible Light
Length of Day
Tomorrow will be .
, % of the Moon is Illuminated

Today's Extremes

State Highs State Lows

Community

WunderPhotos

WunderBlog® & News

Nearby

Air Quality

  Air Quality AQ Index Pollutant
Not available.

Snow Depth

Station Depth Elevation

Earthquake Activity

City Distance Mag. Time & Date
Minimum magnitude displayed is 2.5.

Coastal Water Temperatures

Place Temperature

Stations

Nearby Weather Stations

Station Location Temp. Windchill Dew Point Humidity Wind Precip. Elev Updated Type
                   

Watches & Warnings

There are currently no watches in effect.